sensor_id;sensor_type;location;lat;lon;timestamp;P1;durP1;ratioP1;P2;durP2;ratioP2
23236;SDS011;11787;52.018;8.570;2024-01-06T00:00:46;6.30;;;2.83;;
23236;SDS011;11787;52.018;8.570;2024-01-06T00:03:14;7.25;;;3.20;;
23236;SDS011;11787;52.018;8.570;2024-01-06T00:05:39;6.72;;;3.25;;
23236;SDS011;11787;52.018;8.570;2024-01-06T00:08:05;5.45;;;2.95;;
23236;SDS011;11787;52.018;8.570;2024-01-06T00:10:31;4.40;;;2.65;;
23236;SDS011;11787;52.018;8.570;2024-01-06T00:12:57;7.03;;;3.47;;
23236;SDS011;11787;52.018;8.570;2024-01-06T00:15:22;5.20;;;2.63;;
23236;SDS011;11787;52.018;8.570;2024-01-06T00:17:48;5.30;;;2.50;;
23236;SDS011;11787;52.018;8.570;2024-01-06T00:20:14;4.75;;;2.17;;
23236;SDS011;11787;52.018;8.570;2024-01-06T00:22:40;6.22;;;2.65;;
23236;SDS011;11787;52.018;8.570;2024-01-06T00:25:07;4.95;;;2.67;;
23236;SDS011;11787;52.018;8.570;2024-01-06T00:27:33;3.53;;;2.38;;
23236;SDS011;11787;52.018;8.570;2024-01-06T00:29:58;4.85;;;2.45;;
23236;SDS011;11787;52.018;8.570;2024-01-06T00:32:24;6.15;;;2.78;;
23236;SDS011;11787;52.018;8.570;2024-01-06T00:34:49;4.82;;;2.72;;
23236;SDS011;11787;52.018;8.570;2024-01-06T00:37:15;6.85;;;2.80;;
23236;SDS011;11787;52.018;8.570;2024-01-06T00:39:40;5.30;;;3.22;;
23236;SDS011;11787;52.018;8.570;2024-01-06T00:42:06;5.28;;;2.95;;
23236;SDS011;11787;52.018;8.570;2024-01-06T00:44:32;3.90;;;2.00;;
23236;SDS011;11787;52.018;8.570;2024-01-06T00:46:58;5.05;;;2.55;;
23236;SDS011;11787;52.018;8.570;2024-01-06T00:49:24;6.55;;;2.70;;
23236;SDS011;11787;52.018;8.570;2024-01-06T00:51:49;3.88;;;2.22;;
23236;SDS011;11787;52.018;8.570;2024-01-06T00:54:15;4.78;;;2.80;;
23236;SDS011;11787;52.018;8.570;2024-01-06T00:56:41;4.28;;;2.72;;
23236;SDS011;11787;52.018;8.570;2024-01-06T00:59:07;4.60;;;3.03;;
23236;SDS011;11787;52.018;8.570;2024-01-06T01:01:33;7.15;;;3.10;;
23236;SDS011;11787;52.018;8.570;2024-01-06T01:03:59;5.60;;;3.05;;
23236;SDS011;11787;52.018;8.570;2024-01-06T01:06:24;5.28;;;2.65;;
23236;SDS011;11787;52.018;8.570;2024-01-06T01:08:50;4.82;;;2.70;;
23236;SDS011;11787;52.018;8.570;2024-01-06T01:11:15;5.40;;;2.88;;
23236;SDS011;11787;52.018;8.570;2024-01-06T01:13:41;5.32;;;2.63;;
23236;SDS011;11787;52.018;8.570;2024-01-06T01:16:07;4.90;;;2.47;;
23236;SDS011;11787;52.018;8.570;2024-01-06T01:18:32;3.67;;;2.28;;
23236;SDS011;11787;52.018;8.570;2024-01-06T01:20:58;5.88;;;2.83;;
23236;SDS011;11787;52.018;8.570;2024-01-06T01:23:23;3.88;;;2.30;;
23236;SDS011;11787;52.018;8.570;2024-01-06T01:25:49;5.00;;;2.38;;
23236;SDS011;11787;52.018;8.570;2024-01-06T01:28:14;4.22;;;2.40;;
23236;SDS011;11787;52.018;8.570;2024-01-06T01:30:40;3.83;;;2.50;;
23236;SDS011;11787;52.018;8.570;2024-01-06T01:33:05;4.82;;;2.75;;
23236;SDS011;11787;52.018;8.570;2024-01-06T01:35:31;4.97;;;2.63;;
23236;SDS011;11787;52.018;8.570;2024-01-06T01:37:57;5.20;;;2.40;;
23236;SDS011;11787;52.018;8.570;2024-01-06T01:40:22;4.63;;;2.72;;
23236;SDS011;11787;52.018;8.570;2024-01-06T01:42:48;5.18;;;2.78;;
23236;SDS011;11787;52.018;8.570;2024-01-06T01:45:13;5.95;;;2.97;;
23236;SDS011;11787;52.018;8.570;2024-01-06T01:47:39;4.50;;;2.45;;
23236;SDS011;11787;52.018;8.570;2024-01-06T01:50:05;6.20;;;3.25;;
23236;SDS011;11787;52.018;8.570;2024-01-06T01:52:32;5.30;;;2.75;;
23236;SDS011;11787;52.018;8.570;2024-01-06T01:54:57;6.65;;;3.13;;
23236;SDS011;11787;52.018;8.570;2024-01-06T01:57:24;5.47;;;2.70;;
23236;SDS011;11787;52.018;8.570;2024-01-06T01:59:51;4.50;;;2.78;;
23236;SDS011;11787;52.018;8.570;2024-01-06T02:02:18;9.52;;;2.47;;
23236;SDS011;11787;52.018;8.570;2024-01-06T02:04:44;4.47;;;2.15;;
23236;SDS011;11787;52.018;8.570;2024-01-06T02:07:10;5.45;;;2.92;;
23236;SDS011;11787;52.018;8.570;2024-01-06T02:09:36;9.80;;;3.25;;
23236;SDS011;11787;52.018;8.570;2024-01-06T02:12:02;6.22;;;3.28;;
23236;SDS011;11787;52.018;8.570;2024-01-06T02:14:28;3.83;;;2.13;;
23236;SDS011;11787;52.018;8.570;2024-01-06T02:16:53;4.55;;;2.30;;
23236;SDS011;11787;52.018;8.570;2024-01-06T02:19:19;4.75;;;2.00;;
23236;SDS011;11787;52.018;8.570;2024-01-06T02:21:48;4.38;;;2.03;;
23236;SDS011;11787;52.018;8.570;2024-01-06T02:24:16;5.95;;;2.78;;
23236;SDS011;11787;52.018;8.570;2024-01-06T02:26:42;4.93;;;2.50;;
23236;SDS011;11787;52.018;8.570;2024-01-06T02:29:07;4.50;;;2.38;;
23236;SDS011;11787;52.018;8.570;2024-01-06T02:31:33;4.95;;;2.70;;
23236;SDS011;11787;52.018;8.570;2024-01-06T02:33:59;6.07;;;2.88;;
23236;SDS011;11787;52.018;8.570;2024-01-06T02:36:24;4.85;;;2.30;;
23236;SDS011;11787;52.018;8.570;2024-01-06T02:38:50;5.80;;;2.50;;
23236;SDS011;11787;52.018;8.570;2024-01-06T02:41:15;5.22;;;2.58;;
23236;SDS011;11787;52.018;8.570;2024-01-06T02:43:41;3.78;;;2.38;;
23236;SDS011;11787;52.018;8.570;2024-01-06T02:46:06;6.35;;;3.50;;
23236;SDS011;11787;52.018;8.570;2024-01-06T02:48:32;5.78;;;3.30;;
23236;SDS011;11787;52.018;8.570;2024-01-06T02:50:58;4.68;;;2.33;;
23236;SDS011;11787;52.018;8.570;2024-01-06T02:53:23;6.22;;;3.17;;
23236;SDS011;11787;52.018;8.570;2024-01-06T02:55:49;6.18;;;2.58;;
23236;SDS011;11787;52.018;8.570;2024-01-06T02:58:14;5.45;;;2.70;;
23236;SDS011;11787;52.018;8.570;2024-01-06T03:00:40;5.57;;;3.15;;
23236;SDS011;11787;52.018;8.570;2024-01-06T03:03:05;5.25;;;2.97;;
23236;SDS011;11787;52.018;8.570;2024-01-06T03:05:31;8.55;;;3.05;;
23236;SDS011;11787;52.018;8.570;2024-01-06T03:07:56;5.55;;;3.08;;
23236;SDS011;11787;52.018;8.570;2024-01-06T03:10:22;4.97;;;2.80;;
23236;SDS011;11787;52.018;8.570;2024-01-06T03:12:48;5.68;;;3.30;;
23236;SDS011;11787;52.018;8.570;2024-01-06T03:15:13;6.05;;;3.60;;
23236;SDS011;11787;52.018;8.570;2024-01-06T03:17:39;5.60;;;3.85;;
23236;SDS011;11787;52.018;8.570;2024-01-06T03:20:05;5.30;;;3.35;;
23236;SDS011;11787;52.018;8.570;2024-01-06T03:22:32;6.38;;;3.13;;
23236;SDS011;11787;52.018;8.570;2024-01-06T03:24:57;6.00;;;3.42;;
23236;SDS011;11787;52.018;8.570;2024-01-06T03:27:23;6.65;;;3.38;;
23236;SDS011;11787;52.018;8.570;2024-01-06T03:29:49;7.82;;;3.17;;
23236;SDS011;11787;52.018;8.570;2024-01-06T03:32:15;8.93;;;3.80;;
23236;SDS011;11787;52.018;8.570;2024-01-06T03:34:40;5.97;;;2.90;;
23236;SDS011;11787;52.018;8.570;2024-01-06T03:37:06;8.05;;;3.78;;
23236;SDS011;11787;52.018;8.570;2024-01-06T03:39:32;8.25;;;4.13;;
23236;SDS011;11787;52.018;8.570;2024-01-06T03:41:57;5.97;;;3.20;;
23236;SDS011;11787;52.018;8.570;2024-01-06T03:44:24;7.47;;;3.28;;
23236;SDS011;11787;52.018;8.570;2024-01-06T03:46:55;7.40;;;3.53;;
23236;SDS011;11787;52.018;8.570;2024-01-06T03:49:22;7.25;;;4.03;;
23236;SDS011;11787;52.018;8.570;2024-01-06T03:51:47;6.93;;;3.83;;
23236;SDS011;11787;52.018;8.570;2024-01-06T03:54:13;7.43;;;3.80;;
23236;SDS011;11787;52.018;8.570;2024-01-06T03:56:38;7.18;;;3.92;;
23236;SDS011;11787;52.018;8.570;2024-01-06T03:59:04;7.70;;;3.22;;
23236;SDS011;11787;52.018;8.570;2024-01-06T04:01:29;7.82;;;3.55;;
23236;SDS011;11787;52.018;8.570;2024-01-06T04:30:27;7.30;;;4.10;;
23236;SDS011;11787;52.018;8.570;2024-01-06T04:32:53;11.60;;;4.60;;
23236;SDS011;11787;52.018;8.570;2024-01-06T04:35:19;9.02;;;4.63;;
23236;SDS011;11787;52.018;8.570;2024-01-06T04:37:45;9.10;;;4.10;;
23236;SDS011;11787;52.018;8.570;2024-01-06T04:54:46;8.07;;;3.47;;
23236;SDS011;11787;52.018;8.570;2024-01-06T04:57:12;6.80;;;3.53;;
23236;SDS011;11787;52.018;8.570;2024-01-06T04:59:38;9.18;;;4.22;;
23236;SDS011;11787;52.018;8.570;2024-01-06T05:02:04;9.75;;;4.70;;
23236;SDS011;11787;52.018;8.570;2024-01-06T05:04:30;9.98;;;3.35;;
23236;SDS011;11787;52.018;8.570;2024-01-06T05:06:57;6.72;;;2.72;;
23236;SDS011;11787;52.018;8.570;2024-01-06T05:09:23;6.47;;;3.45;;
23236;SDS011;11787;52.018;8.570;2024-01-06T05:11:49;11.82;;;4.35;;
23236;SDS011;11787;52.018;8.570;2024-01-06T05:14:14;6.63;;;3.78;;
23236;SDS011;11787;52.018;8.570;2024-01-06T05:16:40;8.43;;;4.05;;
23236;SDS011;11787;52.018;8.570;2024-01-06T05:19:05;7.60;;;4.00;;
23236;SDS011;11787;52.018;8.570;2024-01-06T05:21:31;7.97;;;3.78;;
23236;SDS011;11787;52.018;8.570;2024-01-06T05:23:57;9.57;;;4.65;;
23236;SDS011;11787;52.018;8.570;2024-01-06T05:26:22;8.90;;;3.88;;
23236;SDS011;11787;52.018;8.570;2024-01-06T05:28:48;9.27;;;3.67;;
23236;SDS011;11787;52.018;8.570;2024-01-06T05:31:14;8.38;;;3.63;;
23236;SDS011;11787;52.018;8.570;2024-01-06T05:33:39;10.02;;;4.28;;
23236;SDS011;11787;52.018;8.570;2024-01-06T05:36:05;8.23;;;3.03;;
23236;SDS011;11787;52.018;8.570;2024-01-06T05:38:30;7.53;;;3.05;;
23236;SDS011;11787;52.018;8.570;2024-01-06T05:40:56;7.35;;;3.05;;
23236;SDS011;11787;52.018;8.570;2024-01-06T05:43:22;5.82;;;2.92;;
23236;SDS011;11787;52.018;8.570;2024-01-06T05:45:47;7.18;;;2.72;;
23236;SDS011;11787;52.018;8.570;2024-01-06T05:50:38;5.13;;;2.58;;
23236;SDS011;11787;52.018;8.570;2024-01-06T05:53:04;4.13;;;1.98;;
23236;SDS011;11787;52.018;8.570;2024-01-06T05:55:30;5.10;;;2.22;;
23236;SDS011;11787;52.018;8.570;2024-01-06T06:00:21;5.97;;;2.67;;
23236;SDS011;11787;52.018;8.570;2024-01-06T06:05:13;3.13;;;1.90;;
23236;SDS011;11787;52.018;8.570;2024-01-06T06:07:38;2.60;;;1.05;;
23236;SDS011;11787;52.018;8.570;2024-01-06T06:17:32;3.85;;;2.00;;
23236;SDS011;11787;52.018;8.570;2024-01-06T06:19:58;4.13;;;2.00;;
23236;SDS011;11787;52.018;8.570;2024-01-06T06:22:24;3.95;;;1.75;;
23236;SDS011;11787;52.018;8.570;2024-01-06T06:27:20;3.47;;;1.85;;
23236;SDS011;11787;52.018;8.570;2024-01-06T06:29:46;6.55;;;1.83;;
23236;SDS011;11787;52.018;8.570;2024-01-06T06:32:12;2.97;;;1.43;;
23236;SDS011;11787;52.018;8.570;2024-01-06T06:34:37;4.03;;;1.45;;
23236;SDS011;11787;52.018;8.570;2024-01-06T06:37:03;2.33;;;1.43;;
23236;SDS011;11787;52.018;8.570;2024-01-06T06:39:28;2.20;;;1.10;;
23236;SDS011;11787;52.018;8.570;2024-01-06T06:41:56;3.97;;;1.70;;
23236;SDS011;11787;52.018;8.570;2024-01-06T06:44:21;3.25;;;1.15;;
23236;SDS011;11787;52.018;8.570;2024-01-06T06:46:48;4.05;;;1.90;;
23236;SDS011;11787;52.018;8.570;2024-01-06T07:57:21;2.45;;;1.23;;
23236;SDS011;11787;52.018;8.570;2024-01-06T13:49:29;1.05;;;0.82;;
23236;SDS011;11787;52.018;8.570;2024-01-06T13:51:55;3.08;;;0.70;;
23236;SDS011;11787;52.018;8.570;2024-01-06T13:54:21;1.20;;;0.70;;
23236;SDS011;11787;52.018;8.570;2024-01-06T13:56:47;1.90;;;0.70;;
23236;SDS011;11787;52.018;8.570;2024-01-06T13:59:12;1.48;;;0.90;;
23236;SDS011;11787;52.018;8.570;2024-01-06T14:01:38;2.05;;;1.00;;
23236;SDS011;11787;52.018;8.570;2024-01-06T14:04:04;2.97;;;0.73;;
23236;SDS011;11787;52.018;8.570;2024-01-06T14:06:30;2.95;;;0.70;;
23236;SDS011;11787;52.018;8.570;2024-01-06T14:08:56;2.00;;;0.75;;
23236;SDS011;11787;52.018;8.570;2024-01-06T14:11:22;2.23;;;1.20;;
23236;SDS011;11787;52.018;8.570;2024-01-06T14:16:14;3.70;;;0.90;;
23236;SDS011;11787;52.018;8.570;2024-01-06T14:18:40;1.48;;;0.73;;
23236;SDS011;11787;52.018;8.570;2024-01-06T14:21:07;0.93;;;0.77;;
23236;SDS011;11787;52.018;8.570;2024-01-06T14:23:36;0.90;;;0.50;;
23236;SDS011;11787;52.018;8.570;2024-01-06T14:26:02;1.17;;;0.40;;
23236;SDS011;11787;52.018;8.570;2024-01-06T14:28:28;0.10;;;0.10;;
23236;SDS011;11787;52.018;8.570;2024-01-06T14:30:53;0.52;;;0.40;;
23236;SDS011;11787;52.018;8.570;2024-01-06T14:33:19;0.73;;;0.65;;
23236;SDS011;11787;52.018;8.570;2024-01-06T14:35:45;0.32;;;0.28;;
23236;SDS011;11787;52.018;8.570;2024-01-06T14:38:11;0.88;;;0.40;;
23236;SDS011;11787;52.018;8.570;2024-01-06T14:40:37;0.82;;;0.45;;
23236;SDS011;11787;52.018;8.570;2024-01-06T14:43:03;0.30;;;0.17;;
23236;SDS011;11787;52.018;8.570;2024-01-06T14:45:29;1.27;;;0.40;;
23236;SDS011;11787;52.018;8.570;2024-01-06T14:47:55;1.33;;;0.47;;
23236;SDS011;11787;52.018;8.570;2024-01-06T14:50:21;0.60;;;0.40;;
23236;SDS011;11787;52.018;8.570;2024-01-06T14:52:46;6.35;;;1.13;;
23236;SDS011;11787;52.018;8.570;2024-01-06T14:55:12;4.15;;;1.65;;
23236;SDS011;11787;52.018;8.570;2024-01-06T14:57:37;2.35;;;0.77;;
23236;SDS011;11787;52.018;8.570;2024-01-06T15:00:04;1.63;;;0.90;;
23236;SDS011;11787;52.018;8.570;2024-01-06T15:02:30;1.60;;;0.68;;
23236;SDS011;11787;52.018;8.570;2024-01-06T15:04:56;0.98;;;0.47;;
23236;SDS011;11787;52.018;8.570;2024-01-06T15:07:23;0.88;;;0.68;;
23236;SDS011;11787;52.018;8.570;2024-01-06T15:09:48;1.67;;;1.00;;
23236;SDS011;11787;52.018;8.570;2024-01-06T15:12:14;1.67;;;0.75;;
23236;SDS011;11787;52.018;8.570;2024-01-06T15:14:40;1.73;;;1.25;;
23236;SDS011;11787;52.018;8.570;2024-01-06T15:17:06;1.08;;;0.70;;
23236;SDS011;11787;52.018;8.570;2024-01-06T15:19:32;1.17;;;0.90;;
23236;SDS011;11787;52.018;8.570;2024-01-06T15:21:58;1.00;;;0.57;;
23236;SDS011;11787;52.018;8.570;2024-01-06T15:24:24;1.17;;;0.77;;
23236;SDS011;11787;52.018;8.570;2024-01-06T15:26:50;0.50;;;0.30;;
23236;SDS011;11787;52.018;8.570;2024-01-06T15:29:19;0.80;;;0.50;;
23236;SDS011;11787;52.018;8.570;2024-01-06T15:31:45;0.65;;;0.47;;
23236;SDS011;11787;52.018;8.570;2024-01-06T15:34:11;0.60;;;0.50;;
23236;SDS011;11787;52.018;8.570;2024-01-06T15:36:37;0.63;;;0.50;;
23236;SDS011;11787;52.018;8.570;2024-01-06T15:39:02;0.85;;;0.47;;
23236;SDS011;11787;52.018;8.570;2024-01-06T15:41:28;1.38;;;0.93;;
23236;SDS011;11787;52.018;8.570;2024-01-06T15:43:53;0.47;;;0.35;;
23236;SDS011;11787;52.018;8.570;2024-01-06T15:46:19;0.68;;;0.45;;
23236;SDS011;11787;52.018;8.570;2024-01-06T15:48:45;0.68;;;0.65;;
23236;SDS011;11787;52.018;8.570;2024-01-06T15:51:11;1.83;;;1.00;;
23236;SDS011;11787;52.018;8.570;2024-01-06T15:53:37;1.77;;;1.67;;
23236;SDS011;11787;52.018;8.570;2024-01-06T15:56:02;2.78;;;1.80;;
23236;SDS011;11787;52.018;8.570;2024-01-06T15:58:28;2.35;;;1.30;;
23236;SDS011;11787;52.018;8.570;2024-01-06T16:00:54;2.15;;;1.65;;
23236;SDS011;11787;52.018;8.570;2024-01-06T16:03:19;2.38;;;1.40;;
23236;SDS011;11787;52.018;8.570;2024-01-06T16:05:45;2.35;;;1.73;;
23236;SDS011;11787;52.018;8.570;2024-01-06T16:08:11;2.05;;;1.58;;
23236;SDS011;11787;52.018;8.570;2024-01-06T16:10:37;4.60;;;1.83;;
23236;SDS011;11787;52.018;8.570;2024-01-06T16:13:03;2.55;;;1.67;;
23236;SDS011;11787;52.018;8.570;2024-01-06T16:15:29;3.10;;;1.45;;
23236;SDS011;11787;52.018;8.570;2024-01-06T16:17:54;3.72;;;2.00;;
23236;SDS011;11787;52.018;8.570;2024-01-06T16:20:20;1.85;;;1.38;;
23236;SDS011;11787;52.018;8.570;2024-01-06T16:22:47;3.53;;;2.00;;
23236;SDS011;11787;52.018;8.570;2024-01-06T16:25:15;2.35;;;1.40;;
23236;SDS011;11787;52.018;8.570;2024-01-06T16:27:41;3.85;;;2.42;;
23236;SDS011;11787;52.018;8.570;2024-01-06T16:30:07;7.88;;;2.85;;
23236;SDS011;11787;52.018;8.570;2024-01-06T16:32:33;3.40;;;1.90;;
23236;SDS011;11787;52.018;8.570;2024-01-06T16:34:59;3.83;;;1.52;;
23236;SDS011;11787;52.018;8.570;2024-01-06T16:37:25;3.55;;;1.85;;
23236;SDS011;11787;52.018;8.570;2024-01-06T16:39:50;2.45;;;1.50;;
23236;SDS011;11787;52.018;8.570;2024-01-06T16:42:17;3.30;;;1.55;;
23236;SDS011;11787;52.018;8.570;2024-01-06T16:44:44;1.85;;;1.42;;
23236;SDS011;11787;52.018;8.570;2024-01-06T16:47:10;5.88;;;2.63;;
23236;SDS011;11787;52.018;8.570;2024-01-06T16:49:36;3.30;;;1.83;;
23236;SDS011;11787;52.018;8.570;2024-01-06T16:52:02;2.80;;;1.70;;
23236;SDS011;11787;52.018;8.570;2024-01-06T16:54:27;3.33;;;2.45;;
23236;SDS011;11787;52.018;8.570;2024-01-06T16:56:53;2.58;;;1.50;;
23236;SDS011;11787;52.018;8.570;2024-01-06T16:59:19;3.20;;;1.60;;
23236;SDS011;11787;52.018;8.570;2024-01-06T17:01:44;3.47;;;1.75;;
23236;SDS011;11787;52.018;8.570;2024-01-06T17:04:10;2.38;;;1.73;;
23236;SDS011;11787;52.018;8.570;2024-01-06T17:06:37;2.25;;;1.55;;
23236;SDS011;11787;52.018;8.570;2024-01-06T17:09:03;3.28;;;1.50;;
23236;SDS011;11787;52.018;8.570;2024-01-06T17:11:29;5.05;;;1.55;;
23236;SDS011;11787;52.018;8.570;2024-01-06T17:13:54;3.53;;;1.98;;
23236;SDS011;11787;52.018;8.570;2024-01-06T17:16:20;3.75;;;1.73;;
23236;SDS011;11787;52.018;8.570;2024-01-06T17:18:45;7.60;;;3.40;;
23236;SDS011;11787;52.018;8.570;2024-01-06T17:21:11;5.50;;;2.55;;
23236;SDS011;11787;52.018;8.570;2024-01-06T17:23:40;7.20;;;2.85;;
23236;SDS011;11787;52.018;8.570;2024-01-06T17:26:06;5.57;;;1.70;;
23236;SDS011;11787;52.018;8.570;2024-01-06T17:28:31;3.58;;;2.33;;
23236;SDS011;11787;52.018;8.570;2024-01-06T17:30:57;4.05;;;2.08;;
23236;SDS011;11787;52.018;8.570;2024-01-06T17:33:23;3.75;;;1.92;;
23236;SDS011;11787;52.018;8.570;2024-01-06T17:35:48;4.82;;;2.78;;
23236;SDS011;11787;52.018;8.570;2024-01-06T17:38:14;3.95;;;2.47;;
23236;SDS011;11787;52.018;8.570;2024-01-06T17:40:39;4.10;;;2.50;;
23236;SDS011;11787;52.018;8.570;2024-01-06T17:43:05;3.33;;;1.98;;
23236;SDS011;11787;52.018;8.570;2024-01-06T17:45:31;5.13;;;2.88;;
23236;SDS011;11787;52.018;8.570;2024-01-06T17:47:56;3.88;;;2.17;;
23236;SDS011;11787;52.018;8.570;2024-01-06T17:50:22;7.40;;;2.78;;
23236;SDS011;11787;52.018;8.570;2024-01-06T17:52:47;5.47;;;2.50;;
23236;SDS011;11787;52.018;8.570;2024-01-06T17:55:14;3.90;;;2.00;;
23236;SDS011;11787;52.018;8.570;2024-01-06T17:57:40;5.45;;;2.88;;
23236;SDS011;11787;52.018;8.570;2024-01-06T18:00:07;4.28;;;2.35;;
23236;SDS011;11787;52.018;8.570;2024-01-06T18:02:34;5.28;;;2.85;;
23236;SDS011;11787;52.018;8.570;2024-01-06T18:05:00;5.28;;;2.83;;
23236;SDS011;11787;52.018;8.570;2024-01-06T18:07:25;6.30;;;2.63;;
23236;SDS011;11787;52.018;8.570;2024-01-06T18:09:54;5.93;;;3.45;;
23236;SDS011;11787;52.018;8.570;2024-01-06T18:12:21;4.38;;;3.10;;
23236;SDS011;11787;52.018;8.570;2024-01-06T18:14:47;4.35;;;3.25;;
23236;SDS011;11787;52.018;8.570;2024-01-06T18:17:13;6.55;;;3.75;;
23236;SDS011;11787;52.018;8.570;2024-01-06T18:19:38;7.57;;;4.03;;
23236;SDS011;11787;52.018;8.570;2024-01-06T18:22:04;4.25;;;3.17;;
23236;SDS011;11787;52.018;8.570;2024-01-06T18:24:30;8.27;;;3.30;;
23236;SDS011;11787;52.018;8.570;2024-01-06T18:26:56;7.63;;;3.70;;
23236;SDS011;11787;52.018;8.570;2024-01-06T18:29:22;7.60;;;3.70;;
23236;SDS011;11787;52.018;8.570;2024-01-06T18:31:48;5.15;;;2.08;;
23236;SDS011;11787;52.018;8.570;2024-01-06T18:34:14;8.10;;;3.42;;
23236;SDS011;11787;52.018;8.570;2024-01-06T18:36:39;7.85;;;3.10;;
23236;SDS011;11787;52.018;8.570;2024-01-06T18:39:05;7.43;;;3.47;;
23236;SDS011;11787;52.018;8.570;2024-01-06T18:41:30;6.85;;;2.90;;
23236;SDS011;11787;52.018;8.570;2024-01-06T18:43:56;5.93;;;3.92;;
23236;SDS011;11787;52.018;8.570;2024-01-06T18:46:21;7.45;;;2.97;;
23236;SDS011;11787;52.018;8.570;2024-01-06T18:48:47;5.82;;;3.65;;
23236;SDS011;11787;52.018;8.570;2024-01-06T18:51:13;5.85;;;2.80;;
23236;SDS011;11787;52.018;8.570;2024-01-06T18:53:39;5.60;;;2.70;;
23236;SDS011;11787;52.018;8.570;2024-01-06T18:56:05;7.68;;;3.13;;
23236;SDS011;11787;52.018;8.570;2024-01-06T18:58:33;6.20;;;2.63;;
23236;SDS011;11787;52.018;8.570;2024-01-06T19:00:58;6.82;;;2.97;;
23236;SDS011;11787;52.018;8.570;2024-01-06T19:03:24;7.20;;;3.80;;
23236;SDS011;11787;52.018;8.570;2024-01-06T19:05:50;5.63;;;2.90;;
23236;SDS011;11787;52.018;8.570;2024-01-06T19:08:15;5.68;;;3.15;;
23236;SDS011;11787;52.018;8.570;2024-01-06T19:10:41;6.82;;;3.55;;
23236;SDS011;11787;52.018;8.570;2024-01-06T19:13:06;6.57;;;3.42;;
23236;SDS011;11787;52.018;8.570;2024-01-06T19:15:37;6.20;;;3.38;;
23236;SDS011;11787;52.018;8.570;2024-01-06T19:18:05;5.60;;;3.00;;
23236;SDS011;11787;52.018;8.570;2024-01-06T19:20:30;6.68;;;3.60;;
23236;SDS011;11787;52.018;8.570;2024-01-06T19:22:56;6.38;;;3.30;;
23236;SDS011;11787;52.018;8.570;2024-01-06T19:25:21;6.45;;;3.05;;
23236;SDS011;11787;52.018;8.570;2024-01-06T19:27:47;8.90;;;4.78;;
23236;SDS011;11787;52.018;8.570;2024-01-06T19:30:13;10.23;;;5.07;;
23236;SDS011;11787;52.018;8.570;2024-01-06T19:32:39;9.98;;;4.28;;
23236;SDS011;11787;52.018;8.570;2024-01-06T19:35:06;6.28;;;3.00;;
23236;SDS011;11787;52.018;8.570;2024-01-06T19:37:32;10.32;;;3.72;;
23236;SDS011;11787;52.018;8.570;2024-01-06T19:39:58;5.30;;;3.13;;
23236;SDS011;11787;52.018;8.570;2024-01-06T19:42:24;6.88;;;3.75;;
23236;SDS011;11787;52.018;8.570;2024-01-06T19:44:49;7.22;;;3.33;;
23236;SDS011;11787;52.018;8.570;2024-01-06T19:47:15;8.75;;;4.70;;
23236;SDS011;11787;52.018;8.570;2024-01-06T19:49:42;7.80;;;4.82;;
23236;SDS011;11787;52.018;8.570;2024-01-06T19:52:08;8.75;;;4.88;;
23236;SDS011;11787;52.018;8.570;2024-01-06T19:54:33;8.90;;;5.03;;
23236;SDS011;11787;52.018;8.570;2024-01-06T19:57:01;6.15;;;4.22;;
23236;SDS011;11787;52.018;8.570;2024-01-06T19:59:27;7.85;;;4.35;;
23236;SDS011;11787;52.018;8.570;2024-01-06T20:01:52;6.68;;;3.95;;
23236;SDS011;11787;52.018;8.570;2024-01-06T20:04:18;11.00;;;4.32;;
23236;SDS011;11787;52.018;8.570;2024-01-06T20:06:43;11.43;;;4.80;;
23236;SDS011;11787;52.018;8.570;2024-01-06T20:09:11;9.40;;;4.75;;
23236;SDS011;11787;52.018;8.570;2024-01-06T20:11:37;8.43;;;4.43;;
23236;SDS011;11787;52.018;8.570;2024-01-06T20:14:02;10.90;;;4.65;;
23236;SDS011;11787;52.018;8.570;2024-01-06T20:16:28;7.88;;;4.72;;
23236;SDS011;11787;52.018;8.570;2024-01-06T20:18:55;9.93;;;4.63;;
23236;SDS011;11787;52.018;8.570;2024-01-06T20:21:21;11.60;;;4.28;;
23236;SDS011;11787;52.018;8.570;2024-01-06T20:23:47;9.93;;;3.90;;
23236;SDS011;11787;52.018;8.570;2024-01-06T20:26:12;9.25;;;4.85;;
23236;SDS011;11787;52.018;8.570;2024-01-06T20:28:38;10.48;;;4.43;;
23236;SDS011;11787;52.018;8.570;2024-01-06T20:31:04;9.40;;;5.07;;
23236;SDS011;11787;52.018;8.570;2024-01-06T20:33:30;7.03;;;3.30;;
23236;SDS011;11787;52.018;8.570;2024-01-06T20:35:59;11.13;;;5.78;;
23236;SDS011;11787;52.018;8.570;2024-01-06T20:38:25;10.63;;;5.07;;
23236;SDS011;11787;52.018;8.570;2024-01-06T20:40:51;8.98;;;4.07;;
23236;SDS011;11787;52.018;8.570;2024-01-06T20:43:16;11.18;;;4.97;;
23236;SDS011;11787;52.018;8.570;2024-01-06T20:45:42;13.07;;;6.88;;
23236;SDS011;11787;52.018;8.570;2024-01-06T20:48:09;7.70;;;4.15;;
23236;SDS011;11787;52.018;8.570;2024-01-06T20:50:34;10.15;;;4.53;;
23236;SDS011;11787;52.018;8.570;2024-01-06T20:53:00;9.25;;;4.78;;
23236;SDS011;11787;52.018;8.570;2024-01-06T20:55:25;11.50;;;5.05;;
23236;SDS011;11787;52.018;8.570;2024-01-06T20:57:51;9.60;;;5.20;;
23236;SDS011;11787;52.018;8.570;2024-01-06T21:00:17;9.43;;;4.97;;
23236;SDS011;11787;52.018;8.570;2024-01-06T21:02:43;10.85;;;5.85;;
23236;SDS011;11787;52.018;8.570;2024-01-06T21:05:09;8.65;;;4.68;;
23236;SDS011;11787;52.018;8.570;2024-01-06T21:07:34;13.02;;;5.57;;
23236;SDS011;11787;52.018;8.570;2024-01-06T21:10:00;12.55;;;4.25;;
23236;SDS011;11787;52.018;8.570;2024-01-06T21:12:28;14.48;;;5.38;;
23236;SDS011;11787;52.018;8.570;2024-01-06T21:14:56;5.93;;;3.13;;
23236;SDS011;11787;52.018;8.570;2024-01-06T21:17:22;9.70;;;5.53;;
23236;SDS011;11787;52.018;8.570;2024-01-06T21:19:48;8.68;;;5.05;;
23236;SDS011;11787;52.018;8.570;2024-01-06T21:22:13;11.38;;;6.53;;
23236;SDS011;11787;52.018;8.570;2024-01-06T21:24:39;12.40;;;6.10;;
23236;SDS011;11787;52.018;8.570;2024-01-06T21:27:05;7.40;;;4.32;;
23236;SDS011;11787;52.018;8.570;2024-01-06T21:29:31;9.10;;;4.78;;
23236;SDS011;11787;52.018;8.570;2024-01-06T21:31:57;12.07;;;4.90;;
23236;SDS011;11787;52.018;8.570;2024-01-06T21:34:22;6.18;;;3.95;;
23236;SDS011;11787;52.018;8.570;2024-01-06T21:36:48;9.35;;;4.72;;
23236;SDS011;11787;52.018;8.570;2024-01-06T21:39:14;7.95;;;3.85;;
23236;SDS011;11787;52.018;8.570;2024-01-06T21:41:39;7.50;;;4.88;;
23236;SDS011;11787;52.018;8.570;2024-01-06T21:44:05;11.45;;;5.10;;
23236;SDS011;11787;52.018;8.570;2024-01-06T21:46:31;9.70;;;3.97;;
23236;SDS011;11787;52.018;8.570;2024-01-06T21:48:57;8.98;;;4.75;;
23236;SDS011;11787;52.018;8.570;2024-01-06T21:51:22;8.75;;;5.00;;
23236;SDS011;11787;52.018;8.570;2024-01-06T21:53:48;11.05;;;5.53;;
23236;SDS011;11787;52.018;8.570;2024-01-06T21:56:13;7.80;;;4.53;;
23236;SDS011;11787;52.018;8.570;2024-01-06T21:58:39;16.75;;;6.28;;
23236;SDS011;11787;52.018;8.570;2024-01-06T22:01:04;6.97;;;4.15;;
23236;SDS011;11787;52.018;8.570;2024-01-06T22:03:30;10.63;;;3.88;;
23236;SDS011;11787;52.018;8.570;2024-01-06T22:05:55;5.70;;;4.18;;
23236;SDS011;11787;52.018;8.570;2024-01-06T22:08:21;10.27;;;4.20;;
23236;SDS011;11787;52.018;8.570;2024-01-06T22:10:46;9.55;;;4.85;;
23236;SDS011;11787;52.018;8.570;2024-01-06T22:13:12;9.63;;;4.15;;
23236;SDS011;11787;52.018;8.570;2024-01-06T22:15:39;8.20;;;4.50;;
23236;SDS011;11787;52.018;8.570;2024-01-06T22:18:05;8.32;;;4.63;;
23236;SDS011;11787;52.018;8.570;2024-01-06T22:20:31;8.63;;;4.43;;
23236;SDS011;11787;52.018;8.570;2024-01-06T22:22:56;11.70;;;5.13;;
23236;SDS011;11787;52.018;8.570;2024-01-06T22:25:22;9.52;;;5.47;;
23236;SDS011;11787;52.018;8.570;2024-01-06T22:27:48;9.60;;;5.15;;
23236;SDS011;11787;52.018;8.570;2024-01-06T22:30:13;8.10;;;4.28;;
23236;SDS011;11787;52.018;8.570;2024-01-06T22:32:41;8.20;;;4.22;;
23236;SDS011;11787;52.018;8.570;2024-01-06T22:35:07;9.45;;;4.53;;